createdAt,value
2018-11-20T00:02:10.666Z,3.80
2018-11-20T00:05:18.125Z,3.80
2018-11-20T00:08:25.548Z,3.90
2018-11-20T00:11:32.897Z,3.90
2018-11-20T00:14:26.927Z,3.90
2018-11-20T00:17:34.472Z,3.80
2018-11-20T00:20:41.913Z,3.90
2018-11-20T00:23:49.267Z,3.90
2018-11-20T00:26:56.621Z,3.90
2018-11-20T00:30:03.980Z,3.90
2018-11-20T00:33:11.371Z,3.90
2018-11-20T00:36:18.706Z,3.90
2018-11-20T00:39:26.621Z,3.90
2018-11-20T00:42:34.022Z,3.90
2018-11-20T00:45:36.336Z,3.90
2018-11-20T00:48:44.073Z,3.80
2018-11-20T00:51:51.421Z,3.80
2018-11-20T00:54:58.931Z,3.80
2018-11-20T00:57:37.908Z,3.80
2018-11-20T01:00:45.254Z,3.70
2018-11-20T01:03:52.562Z,3.80
2018-11-20T01:06:59.893Z,3.70
2018-11-20T01:10:07.252Z,3.70
2018-11-20T01:13:14.664Z,3.70
2018-11-20T01:16:22.014Z,3.80
2018-11-20T01:19:29.313Z,3.80
2018-11-20T01:22:37.144Z,3.80
2018-11-20T01:25:44.473Z,3.80
2018-11-20T01:28:51.965Z,3.80
2018-11-20T01:31:59.325Z,3.80
2018-11-20T01:35:06.702Z,3.70
2018-11-20T01:38:14.128Z,3.80
2018-11-20T01:41:21.569Z,3.70
2018-11-20T01:44:29.046Z,3.70
2018-11-20T01:47:36.485Z,3.70
2018-11-20T01:50:43.995Z,3.80
2018-11-20T01:53:41.812Z,3.70
2018-11-20T01:56:49.126Z,3.70
2018-11-20T01:59:56.482Z,3.70
2018-11-20T02:03:04.106Z,3.60
2018-11-20T02:06:11.456Z,3.60
2018-11-20T02:09:18.780Z,3.60
2018-11-20T02:12:26.185Z,3.60
2018-11-20T02:15:33.561Z,3.60
2018-11-20T02:18:40.913Z,3.50
2018-11-20T02:21:46.688Z,3.50
2018-11-20T02:24:35.157Z,3.50
2018-11-20T02:27:32.861Z,3.50
2018-11-20T02:30:14.668Z,3.50
2018-11-20T02:33:12.372Z,3.40
2018-11-20T02:36:09.793Z,3.40
2018-11-20T02:38:58.283Z,3.40
2018-11-20T02:41:45.104Z,3.40
2018-11-20T02:44:32.008Z,3.40
2018-11-20T02:47:26.210Z,3.30
2018-11-20T02:50:17.531Z,3.30
2018-11-20T02:53:08.872Z,3.20
2018-11-20T02:55:46.215Z,3.20
2018-11-20T02:58:33.164Z,3.10
2018-11-20T03:01:24.224Z,3.10
2018-11-20T03:04:21.399Z,3.10
2018-11-20T03:07:03.696Z,3.10
2018-11-20T03:09:52.098Z,3.10
2018-11-20T03:12:40.515Z,3.10
2018-11-20T03:15:37.807Z,3.20
2018-11-20T03:18:44.548Z,3.20
2018-11-20T03:21:24.282Z,3.30
2018-11-20T03:24:15.647Z,3.30
2018-11-20T03:27:02.581Z,3.30
2018-11-20T03:30:29.416Z,3.40
2018-11-20T03:33:35.964Z,3.40
2018-11-20T03:36:24.432Z,3.50
2018-11-20T03:39:14.167Z,3.50
2018-11-20T03:42:06.873Z,3.40
2018-11-20T03:45:01.173Z,3.50
2018-11-20T03:47:49.126Z,3.50
2018-11-20T03:50:37.656Z,3.50
2018-11-20T03:53:18.582Z,3.60
2018-11-20T03:56:10.088Z,3.60
2018-11-20T03:59:04.981Z,3.60
2018-11-20T04:02:12.251Z,3.60
2018-11-20T04:04:55.769Z,3.70
2018-11-20T04:07:47.162Z,3.60
2018-11-20T04:10:38.211Z,3.70
2018-11-20T04:13:32.850Z,3.70
2018-11-20T04:16:20.085Z,3.70
2018-11-20T04:19:02.965Z,3.70
2018-11-20T04:21:50.467Z,3.80
2018-11-20T04:24:48.450Z,3.80
2018-11-20T04:27:44.911Z,3.80
2018-11-20T04:30:58.296Z,3.80
2018-11-20T04:34:01.477Z,3.90
2018-11-20T04:36:56.943Z,3.90
2018-11-20T04:39:43.563Z,3.90
2018-11-20T04:42:31.261Z,3.90
2018-11-20T04:45:18.744Z,3.90
2018-11-20T04:48:16.260Z,3.90
2018-11-20T04:51:03.860Z,4.00
2018-11-20T04:53:52.999Z,4.00
2018-11-20T04:56:54.012Z,4.00
2018-11-20T04:59:34.489Z,4.00
2018-11-20T05:02:15.605Z,4.00
2018-11-20T05:04:55.674Z,4.10
2018-11-20T05:07:57.752Z,4.00
2018-11-20T05:10:56.856Z,4.00
2018-11-20T05:13:51.876Z,4.00
2018-11-20T05:16:59.172Z,4.00
2018-11-20T05:20:06.221Z,4.00
2018-11-20T05:22:53.886Z,4.10
2018-11-20T05:25:45.954Z,4.10
2018-11-20T05:28:53.500Z,4.10
2018-11-20T05:31:54.513Z,4.10
2018-11-20T05:34:40.768Z,4.10
2018-11-20T05:37:28.191Z,4.10
2018-11-20T05:40:10.135Z,4.10
2018-11-20T05:42:57.789Z,4.10
2018-11-20T05:45:52.874Z,4.10
2018-11-20T05:48:40.730Z,4.10
2018-11-20T05:51:32.315Z,4.20
2018-11-20T05:54:19.595Z,4.20
2018-11-20T05:57:11.369Z,4.20
2018-11-20T06:00:00.181Z,4.10
2018-11-20T06:03:00.724Z,4.10
2018-11-20T06:06:02.050Z,4.10
2018-11-20T06:09:02.937Z,4.10
2018-11-20T06:11:57.548Z,4.10
2018-11-20T06:14:58.500Z,4.10
2018-11-20T06:17:51.556Z,4.20
2018-11-20T06:20:37.460Z,4.20
2018-11-20T06:23:31.925Z,4.20
2018-11-20T06:26:21.115Z,4.20
2018-11-20T06:29:09.541Z,4.20
2018-11-20T06:32:01.436Z,4.20
2018-11-20T06:34:39.015Z,4.20
2018-11-20T06:37:27.833Z,4.20
2018-11-20T06:40:15.570Z,4.20
2018-11-20T06:43:02.770Z,4.30
2018-11-20T06:45:51.444Z,4.20
2018-11-20T06:48:43.474Z,4.30
2018-11-20T06:51:37.220Z,4.30
2018-11-20T06:54:41.639Z,4.30
2018-11-20T06:57:33.405Z,4.30
2018-11-20T07:00:33.970Z,4.30
2018-11-20T07:03:21.714Z,4.30
2018-11-20T07:06:28.611Z,4.30
2018-11-20T07:09:29.363Z,4.30
2018-11-20T07:12:23.848Z,4.40
2018-11-20T07:15:22.937Z,4.40
2018-11-20T07:18:20.071Z,4.30
2018-11-20T07:21:14.523Z,4.30
2018-11-20T07:24:03.053Z,4.30
2018-11-20T07:26:50.269Z,4.30
2018-11-20T07:29:37.981Z,4.30
2018-11-20T07:32:29.242Z,4.30
2018-11-20T07:35:26.548Z,4.30
2018-11-20T07:38:20.735Z,4.30
2018-11-20T07:41:21.260Z,4.20
2018-11-20T07:44:12.742Z,4.20
2018-11-20T07:47:00.238Z,4.30
2018-11-20T07:49:57.714Z,4.40
2018-11-20T07:53:04.495Z,4.40
2018-11-20T07:55:58.985Z,4.40
2018-11-20T07:58:41.815Z,4.50
2018-11-20T08:01:23.780Z,4.50
2018-11-20T08:04:18.057Z,4.50
2018-11-20T08:07:09.453Z,4.50
2018-11-20T08:10:07.207Z,4.50
2018-11-20T08:13:05.030Z,4.50
2018-11-20T08:15:59.916Z,4.60
2018-11-20T08:18:46.989Z,4.60
2018-11-20T08:21:35.999Z,4.60
2018-11-20T08:24:43.526Z,4.60
2018-11-20T08:27:51.092Z,4.60
2018-11-20T08:30:58.680Z,4.70
2018-11-20T08:34:06.203Z,4.70
2018-11-20T08:37:13.728Z,4.70
2018-11-20T08:40:21.167Z,4.80
2018-11-20T08:43:28.730Z,4.80
2018-11-20T08:46:36.257Z,4.80
2018-11-20T08:49:43.881Z,4.80
2018-11-20T08:52:51.438Z,4.80
2018-11-20T08:55:58.845Z,4.90
2018-11-20T08:59:06.387Z,4.90
2018-11-20T09:02:13.969Z,4.90
2018-11-20T09:08:40.460Z,5.00
2018-11-20T09:11:47.982Z,5.00
2018-11-20T09:14:55.406Z,5.00
2018-11-20T09:18:03.000Z,5.00
2018-11-20T09:21:10.388Z,5.00
2018-11-20T09:24:17.722Z,5.10
2018-11-20T09:27:25.357Z,5.10
2018-11-20T09:30:32.665Z,5.10
2018-11-20T09:33:40.119Z,5.10
2018-11-20T09:36:47.611Z,5.20
2018-11-20T09:40:14.270Z,5.30
2018-11-20T09:44:02.677Z,5.30
2018-11-20T09:46:27.923Z,5.30
2018-11-20T09:49:35.388Z,5.30
2018-11-20T09:52:42.862Z,5.30
2018-11-20T09:55:50.150Z,5.30
2018-11-20T09:58:57.502Z,5.30
2018-11-20T10:02:04.883Z,5.40
2018-11-20T10:08:01.655Z,5.40
2018-11-20T10:11:09.007Z,5.40
2018-11-20T10:14:08.659Z,5.50
2018-11-20T10:17:15.888Z,5.60
2018-11-20T10:20:23.681Z,5.50
2018-11-20T10:23:31.158Z,5.60
2018-11-20T10:26:38.521Z,5.60
2018-11-20T10:29:46.569Z,5.70
2018-11-20T10:32:54.016Z,5.70
2018-11-20T10:36:01.605Z,5.70
2018-11-20T10:39:09.321Z,5.70
2018-11-20T10:42:16.666Z,5.80
2018-11-20T10:45:24.098Z,5.80
2018-11-20T10:48:31.483Z,5.80
2018-11-20T10:51:27.087Z,5.90
2018-11-20T10:54:34.471Z,6.00
2018-11-20T10:57:41.917Z,6.10
2018-11-20T11:00:49.296Z,6.10
2018-11-20T11:03:56.803Z,6.10
2018-11-20T11:07:04.455Z,6.10
2018-11-20T11:09:57.364Z,6.00
2018-11-20T11:13:04.852Z,5.90
2018-11-20T11:16:12.299Z,5.90
2018-11-20T11:19:19.970Z,6.00
2018-11-20T11:22:27.709Z,6.00
2018-11-20T11:25:35.220Z,6.10
2018-11-20T11:28:42.836Z,6.10
2018-11-20T11:31:50.375Z,6.10
2018-11-20T11:34:57.941Z,6.20
2018-11-20T11:41:16.694Z,6.20
2018-11-20T11:44:24.527Z,6.20
2018-11-20T11:47:31.943Z,6.20
2018-11-20T11:50:39.336Z,6.20
2018-11-20T11:53:46.803Z,6.20
2018-11-20T11:56:54.268Z,6.20
2018-11-20T12:00:01.963Z,6.20
2018-11-20T12:06:16.096Z,6.40
2018-11-20T12:09:23.637Z,6.50
2018-11-20T12:12:12.230Z,6.50
2018-11-20T12:15:19.705Z,6.50
2018-11-20T12:18:27.179Z,6.60
2018-11-20T12:21:34.651Z,6.60
2018-11-20T12:27:07.485Z,6.40
2018-11-20T12:29:57.328Z,6.40
2018-11-20T12:35:40.275Z,6.40
2018-11-20T12:38:19.635Z,6.40
2018-11-20T12:41:28.307Z,6.50
2018-11-20T12:44:33.600Z,6.40
2018-11-20T12:47:43.078Z,6.40
2018-11-20T12:50:48.245Z,6.40
2018-11-20T12:53:57.783Z,6.30
2018-11-20T12:57:02.876Z,6.20
2018-11-20T13:00:10.200Z,6.30
2018-11-20T13:03:17.563Z,6.30
2018-11-20T13:06:24.910Z,6.20
2018-11-20T13:09:32.471Z,6.30
2018-11-20T13:12:39.786Z,6.20
2018-11-20T13:15:49.289Z,6.30
2018-11-20T13:18:54.549Z,6.20
2018-11-20T13:22:01.819Z,6.30
2018-11-20T13:25:09.524Z,6.20
2018-11-20T13:28:16.483Z,6.20
2018-11-20T13:31:23.873Z,6.20
2018-11-20T13:34:31.116Z,6.30
2018-11-20T13:37:29.040Z,6.20
2018-11-20T13:40:28.880Z,6.10
2018-11-20T13:43:20.387Z,6.00
2018-11-20T13:46:09.011Z,6.00
2018-11-20T13:49:01.383Z,6.00
2018-11-20T13:52:07.674Z,6.00
2018-11-20T13:55:00.477Z,6.00
2018-11-20T13:57:59.935Z,6.00
2018-11-20T14:01:00.042Z,5.90
2018-11-20T14:04:00.189Z,5.70
2018-11-20T14:07:00.250Z,5.70
2018-11-20T14:10:00.256Z,5.70
2018-11-20T14:13:00.305Z,5.70
2018-11-20T14:16:00.517Z,5.70
2018-11-20T14:18:59.851Z,5.70
2018-11-20T14:22:02.146Z,5.80
2018-11-20T14:24:58.062Z,5.70
2018-11-20T14:27:49.221Z,5.70
2018-11-20T14:30:55.772Z,5.70
2018-11-20T14:33:59.461Z,5.70
2018-11-20T14:36:46.496Z,5.60
2018-11-20T14:39:52.994Z,5.60
2018-11-20T14:42:40.071Z,5.60
2018-11-20T14:45:20.505Z,5.70
2018-11-20T14:48:07.914Z,5.70
2018-11-20T14:51:02.500Z,5.70
2018-11-20T14:53:48.207Z,5.70
2018-11-20T14:56:54.606Z,5.60
2018-11-20T14:59:43.002Z,5.60
2018-11-20T15:02:24.209Z,5.50
2018-11-20T15:05:20.720Z,5.50
2018-11-20T15:08:11.867Z,5.50
2018-11-20T15:11:00.245Z,5.50
2018-11-20T15:13:51.672Z,5.50
2018-11-20T15:16:33.600Z,5.50
2018-11-20T15:19:34.122Z,5.50
2018-11-20T15:22:13.880Z,5.50
2018-11-20T15:25:04.927Z,5.50
2018-11-20T15:27:43.428Z,5.50
2018-11-20T15:30:30.862Z,5.40
2018-11-20T15:33:17.924Z,5.40
2018-11-20T15:36:06.392Z,5.40
2018-11-20T15:38:53.555Z,5.40
2018-11-20T15:41:41.955Z,5.40
2018-11-20T15:44:23.136Z,5.30
2018-11-20T15:47:10.306Z,5.30
2018-11-20T15:49:57.226Z,5.40
2018-11-20T15:52:54.383Z,5.40
2018-11-20T15:55:41.512Z,5.40
2018-11-20T15:58:38.881Z,5.40
2018-11-20T16:01:28.505Z,5.40
2018-11-20T16:04:15.375Z,5.40
2018-11-20T16:07:06.418Z,5.40
2018-11-20T16:10:09.749Z,5.30
2018-11-20T16:12:52.403Z,5.40
2018-11-20T16:15:59.364Z,5.40
2018-11-20T16:18:50.706Z,5.40
2018-11-20T16:21:39.174Z,5.30
2018-11-20T16:24:30.515Z,5.30
2018-11-20T16:27:31.205Z,5.30
2018-11-20T16:30:19.577Z,5.30
2018-11-20T16:33:06.911Z,5.30
2018-11-20T16:35:44.235Z,5.30
2018-11-20T16:38:32.771Z,5.30
2018-11-20T16:41:27.378Z,5.30
2018-11-20T16:44:14.577Z,5.30
2018-11-20T16:47:01.735Z,5.30
2018-11-20T16:49:55.889Z,5.30
2018-11-20T16:52:43.130Z,5.30
2018-11-20T16:55:30.188Z,5.30
2018-11-20T16:58:17.341Z,5.30
2018-11-20T17:01:14.738Z,5.30
2018-11-20T17:03:57.363Z,5.30
2018-11-20T17:06:51.730Z,5.20
2018-11-20T17:09:38.762Z,5.20
2018-11-20T17:12:35.911Z,5.10
2018-11-20T17:15:31.687Z,5.10
2018-11-20T17:18:32.131Z,5.10
2018-11-20T17:21:20.789Z,5.10
2018-11-20T17:24:14.923Z,5.10
2018-11-20T17:27:16.265Z,5.00
2018-11-20T17:29:56.265Z,5.00
2018-11-20T17:32:42.934Z,5.00
2018-11-20T17:35:46.408Z,5.00
2018-11-20T17:38:47.047Z,5.00
2018-11-20T17:41:30.249Z,5.00
2018-11-20T17:44:18.464Z,5.00
2018-11-20T17:47:13.654Z,5.00
2018-11-20T17:49:55.434Z,5.00
2018-11-20T17:52:44.554Z,5.00
2018-11-20T17:55:31.775Z,5.00
2018-11-20T17:58:26.249Z,5.00
2018-11-20T18:01:17.347Z,5.00
2018-11-20T18:04:23.897Z,4.90
2018-11-20T18:07:12.340Z,5.00
2018-11-20T18:10:03.270Z,5.00
2018-11-20T18:12:51.727Z,4.90
2018-11-20T18:15:43.045Z,4.90
2018-11-20T18:18:34.699Z,4.90
2018-11-20T18:21:32.358Z,4.90
2018-11-20T18:24:23.426Z,4.90
2018-11-20T18:27:18.997Z,4.90
2018-11-20T18:30:09.481Z,4.90
2018-11-20T18:32:56.851Z,4.90
2018-11-20T18:35:43.793Z,4.90
2018-11-20T18:38:34.971Z,4.90
2018-11-20T18:41:22.027Z,4.90
2018-11-20T18:44:10.667Z,4.90
2018-11-20T18:46:54.090Z,4.90
2018-11-20T18:49:46.106Z,4.90
2018-11-20T18:52:34.623Z,4.90
2018-11-20T18:55:23.254Z,4.90
2018-11-20T18:58:10.283Z,4.90
2018-11-20T19:01:04.836Z,4.90
2018-11-20T19:03:51.078Z,4.90
2018-11-20T19:06:48.688Z,4.90
2018-11-20T19:09:55.399Z,4.90
2018-11-20T19:12:52.589Z,4.90
2018-11-20T19:15:39.943Z,4.80
2018-11-20T19:18:24.646Z,4.80
2018-11-20T19:21:06.296Z,4.80
2018-11-20T19:23:53.545Z,4.80
2018-11-20T19:26:47.774Z,4.80
2018-11-20T19:29:38.963Z,4.80
2018-11-20T19:32:35.421Z,4.80
2018-11-20T19:35:22.836Z,4.80
2018-11-20T19:38:10.128Z,4.80
2018-11-20T19:40:57.800Z,4.80
2018-11-20T19:43:48.912Z,4.80
2018-11-20T19:46:46.161Z,4.80
2018-11-20T19:49:40.677Z,4.80
2018-11-20T19:52:41.480Z,4.80
2018-11-20T19:55:28.677Z,4.80
2018-11-20T19:58:13.488Z,4.80
2018-11-20T20:01:20.329Z,4.80
2018-11-20T20:04:08.800Z,4.70
2018-11-20T20:06:57.227Z,4.60
2018-11-20T20:09:48.397Z,4.50
2018-11-20T20:12:28.597Z,4.40
2018-11-20T20:15:27.794Z,4.30
2018-11-20T20:18:14.804Z,4.20
2018-11-20T20:21:09.069Z,4.10
2018-11-20T20:24:12.778Z,4.00
2018-11-20T20:27:04.161Z,3.90
2018-11-20T20:29:51.480Z,3.90
2018-11-20T20:32:38.555Z,3.80
2018-11-20T20:35:22.976Z,3.80
2018-11-20T20:38:11.391Z,3.80
2018-11-20T20:41:09.176Z,3.80
2018-11-20T20:44:09.742Z,3.70
2018-11-20T20:47:02.721Z,3.80
2018-11-20T20:49:43.705Z,3.70
2018-11-20T20:52:32.202Z,3.70
2018-11-20T20:55:23.677Z,3.60
2018-11-20T20:58:10.779Z,3.60
2018-11-20T21:01:00.713Z,3.50
2018-11-20T21:03:49.475Z,3.50
2018-11-20T21:06:46.009Z,3.50
2018-11-20T21:09:27.608Z,3.50
2018-11-20T21:12:16.861Z,3.40
2018-11-20T21:15:05.267Z,3.40
2018-11-20T21:17:52.579Z,3.40
2018-11-20T21:20:53.028Z,3.50
2018-11-20T21:23:41.457Z,3.50
2018-11-20T21:26:29.867Z,3.60
2018-11-20T21:29:24.111Z,3.70
2018-11-20T21:32:15.266Z,3.80
2018-11-20T21:35:19.173Z,3.80
2018-11-20T21:38:10.046Z,3.80
2018-11-20T21:41:00.568Z,3.90
2018-11-20T21:44:04.262Z,3.90
2018-11-20T21:46:47.796Z,3.90
2018-11-20T21:49:35.131Z,4.00
2018-11-20T21:52:23.599Z,4.10
2018-11-20T21:55:18.135Z,4.10
2018-11-20T21:58:18.394Z,4.20
2018-11-20T22:01:12.343Z,4.20
2018-11-20T22:03:59.389Z,4.20
2018-11-20T22:06:46.362Z,4.30
2018-11-20T22:09:33.382Z,4.30
2018-11-20T22:12:20.466Z,4.40
2018-11-20T22:15:06.797Z,4.40
2018-11-20T22:18:10.672Z,4.40
2018-11-20T22:21:14.385Z,4.40
2018-11-20T22:24:08.958Z,4.50
2018-11-20T22:26:56.584Z,4.50
2018-11-20T22:29:45.309Z,4.50
2018-11-20T22:32:35.462Z,4.50
2018-11-20T22:35:24.750Z,4.50
2018-11-20T22:38:08.871Z,4.50
2018-11-20T22:40:59.753Z,4.50
2018-11-20T22:43:46.846Z,4.50
2018-11-20T22:46:41.117Z,4.60
2018-11-20T22:49:38.450Z,4.60
2018-11-20T22:52:25.765Z,4.70
2018-11-20T22:55:06.990Z,4.70
2018-11-20T22:58:09.031Z,4.70
2018-11-20T23:00:49.074Z,4.70
2018-11-20T23:03:40.526Z,4.80
2018-11-20T23:06:25.670Z,4.80
2018-11-20T23:08:55.356Z,4.80
2018-11-20T23:11:25.045Z,4.80
2018-11-20T23:13:55.141Z,4.80
2018-11-20T23:16:24.824Z,4.80
2018-11-20T23:18:54.539Z,4.80
2018-11-20T23:21:24.271Z,4.80
2018-11-20T23:23:53.954Z,4.80
2018-11-20T23:26:23.646Z,4.80
2018-11-20T23:28:53.286Z,4.80
2018-11-20T23:31:22.979Z,4.80
2018-11-20T23:33:52.892Z,4.80
2018-11-20T23:36:22.590Z,4.80
2018-11-20T23:38:52.281Z,4.80
2018-11-20T23:41:21.970Z,4.80
2018-11-20T23:43:51.609Z,4.80
2018-11-20T23:46:21.301Z,4.80
2018-11-20T23:48:51.014Z,4.70
2018-11-20T23:51:20.745Z,4.60
2018-11-20T23:53:50.444Z,4.60
2018-11-20T23:56:20.153Z,4.50
2018-11-20T23:58:49.875Z,4.50
